sensor_id;sensor_type;location;lat;lon;timestamp;P1;durP1;ratioP1;P2;durP2;ratioP2
23716;SDS011;22094;52.130;5.598;2023-11-22T00:01:07;49.72;;;22.27;;
23716;SDS011;22094;52.130;5.598;2023-11-22T00:03:36;54.15;;;22.52;;
23716;SDS011;22094;52.130;5.598;2023-11-22T00:06:01;43.30;;;22.30;;
23716;SDS011;22094;52.130;5.598;2023-11-22T00:08:27;53.63;;;22.75;;
23716;SDS011;22094;52.130;5.598;2023-11-22T00:10:55;52.10;;;23.77;;
23716;SDS011;22094;52.130;5.598;2023-11-22T00:13:23;44.50;;;22.33;;
23716;SDS011;22094;52.130;5.598;2023-11-22T00:15:50;44.05;;;22.50;;
23716;SDS011;22094;52.130;5.598;2023-11-22T00:18:16;46.72;;;22.35;;
23716;SDS011;22094;52.130;5.598;2023-11-22T00:20:42;49.80;;;23.23;;
23716;SDS011;22094;52.130;5.598;2023-11-22T00:23:10;51.40;;;23.35;;
23716;SDS011;22094;52.130;5.598;2023-11-22T00:25:36;44.60;;;22.30;;
23716;SDS011;22094;52.130;5.598;2023-11-22T00:28:02;50.95;;;23.75;;
23716;SDS011;22094;52.130;5.598;2023-11-22T00:30:27;48.47;;;22.98;;
23716;SDS011;22094;52.130;5.598;2023-11-22T00:32:53;40.30;;;20.92;;
23716;SDS011;22094;52.130;5.598;2023-11-22T00:35:18;48.55;;;22.38;;
23716;SDS011;22094;52.130;5.598;2023-11-22T00:37:44;47.03;;;22.25;;
23716;SDS011;22094;52.130;5.598;2023-11-22T00:40:10;39.92;;;21.98;;
23716;SDS011;22094;52.130;5.598;2023-11-22T00:42:36;42.72;;;21.02;;
23716;SDS011;22094;52.130;5.598;2023-11-22T00:45:04;45.72;;;21.45;;
23716;SDS011;22094;52.130;5.598;2023-11-22T00:47:31;41.55;;;21.52;;
23716;SDS011;22094;52.130;5.598;2023-11-22T00:49:57;37.97;;;21.20;;
23716;SDS011;22094;52.130;5.598;2023-11-22T00:52:23;48.65;;;23.15;;
23716;SDS011;22094;52.130;5.598;2023-11-22T00:54:49;46.45;;;22.27;;
23716;SDS011;22094;52.130;5.598;2023-11-22T00:57:15;51.35;;;22.65;;
23716;SDS011;22094;52.130;5.598;2023-11-22T00:59:40;52.78;;;22.83;;
23716;SDS011;22094;52.130;5.598;2023-11-22T01:02:06;56.58;;;23.42;;
23716;SDS011;22094;52.130;5.598;2023-11-22T01:04:33;51.17;;;22.20;;
23716;SDS011;22094;52.130;5.598;2023-11-22T01:07:01;56.20;;;23.40;;
23716;SDS011;22094;52.130;5.598;2023-11-22T01:09:26;49.38;;;20.85;;
23716;SDS011;22094;52.130;5.598;2023-11-22T01:11:53;40.50;;;19.85;;
23716;SDS011;22094;52.130;5.598;2023-11-22T01:14:19;38.60;;;20.75;;
23716;SDS011;22094;52.130;5.598;2023-11-22T01:16:45;52.28;;;21.23;;
23716;SDS011;22094;52.130;5.598;2023-11-22T01:19:10;46.75;;;20.13;;
23716;SDS011;22094;52.130;5.598;2023-11-22T01:21:36;39.75;;;19.40;;
23716;SDS011;22094;52.130;5.598;2023-11-22T01:24:02;45.72;;;22.15;;
23716;SDS011;22094;52.130;5.598;2023-11-22T01:26:28;51.85;;;23.58;;
23716;SDS011;22094;52.130;5.598;2023-11-22T01:28:53;45.67;;;22.27;;
23716;SDS011;22094;52.130;5.598;2023-11-22T01:31:19;61.45;;;24.60;;
23716;SDS011;22094;52.130;5.598;2023-11-22T01:33:45;55.88;;;23.65;;
23716;SDS011;22094;52.130;5.598;2023-11-22T01:36:12;54.90;;;23.60;;
23716;SDS011;22094;52.130;5.598;2023-11-22T01:38:38;50.95;;;24.23;;
23716;SDS011;22094;52.130;5.598;2023-11-22T01:41:04;57.15;;;24.95;;
23716;SDS011;22094;52.130;5.598;2023-11-22T01:43:30;43.05;;;21.67;;
23716;SDS011;22094;52.130;5.598;2023-11-22T01:45:56;58.40;;;24.25;;
23716;SDS011;22094;52.130;5.598;2023-11-22T01:48:22;55.22;;;24.50;;
23716;SDS011;22094;52.130;5.598;2023-11-22T01:50:48;47.63;;;23.63;;
23716;SDS011;22094;52.130;5.598;2023-11-22T01:53:14;55.03;;;24.80;;
23716;SDS011;22094;52.130;5.598;2023-11-22T01:55:41;54.85;;;24.95;;
23716;SDS011;22094;52.130;5.598;2023-11-22T01:58:09;59.25;;;24.92;;
23716;SDS011;22094;52.130;5.598;2023-11-22T02:00:36;52.88;;;24.63;;
23716;SDS011;22094;52.130;5.598;2023-11-22T02:03:13;55.80;;;24.70;;
23716;SDS011;22094;52.130;5.598;2023-11-22T02:05:39;48.65;;;23.95;;
23716;SDS011;22094;52.130;5.598;2023-11-22T02:08:07;61.17;;;26.17;;
23716;SDS011;22094;52.130;5.598;2023-11-22T02:10:37;55.30;;;24.83;;
23716;SDS011;22094;52.130;5.598;2023-11-22T02:13:03;65.28;;;24.88;;
23716;SDS011;22094;52.130;5.598;2023-11-22T02:15:32;55.83;;;24.02;;
23716;SDS011;22094;52.130;5.598;2023-11-22T02:18:01;55.17;;;24.65;;
23716;SDS011;22094;52.130;5.598;2023-11-22T02:20:28;60.60;;;25.27;;
23716;SDS011;22094;52.130;5.598;2023-11-22T02:22:54;56.83;;;23.52;;
23716;SDS011;22094;52.130;5.598;2023-11-22T02:25:20;59.08;;;25.25;;
23716;SDS011;22094;52.130;5.598;2023-11-22T02:27:46;52.78;;;23.30;;
23716;SDS011;22094;52.130;5.598;2023-11-22T02:30:12;60.30;;;25.73;;
23716;SDS011;22094;52.130;5.598;2023-11-22T02:32:38;55.83;;;24.90;;
23716;SDS011;22094;52.130;5.598;2023-11-22T02:35:04;49.65;;;23.40;;
23716;SDS011;22094;52.130;5.598;2023-11-22T02:37:32;54.85;;;24.60;;
23716;SDS011;22094;52.130;5.598;2023-11-22T02:40:14;57.42;;;26.05;;
23716;SDS011;22094;52.130;5.598;2023-11-22T02:42:43;62.50;;;25.40;;
23716;SDS011;22094;52.130;5.598;2023-11-22T02:45:08;62.05;;;25.23;;
23716;SDS011;22094;52.130;5.598;2023-11-22T02:47:34;53.85;;;23.30;;
23716;SDS011;22094;52.130;5.598;2023-11-22T02:50:01;56.15;;;23.80;;
23716;SDS011;22094;52.130;5.598;2023-11-22T02:52:27;56.67;;;24.13;;
23716;SDS011;22094;52.130;5.598;2023-11-22T02:54:53;52.53;;;22.75;;
23716;SDS011;22094;52.130;5.598;2023-11-22T02:57:18;54.55;;;24.90;;
23716;SDS011;22094;52.130;5.598;2023-11-22T02:59:44;48.80;;;23.35;;
23716;SDS011;22094;52.130;5.598;2023-11-22T03:02:10;51.42;;;24.27;;
23716;SDS011;22094;52.130;5.598;2023-11-22T03:04:36;58.20;;;24.38;;
23716;SDS011;22094;52.130;5.598;2023-11-22T03:07:02;60.03;;;24.40;;
23716;SDS011;22094;52.130;5.598;2023-11-22T03:09:28;50.58;;;24.83;;
23716;SDS011;22094;52.130;5.598;2023-11-22T03:11:54;56.45;;;25.02;;
23716;SDS011;22094;52.130;5.598;2023-11-22T03:14:20;56.53;;;25.75;;
23716;SDS011;22094;52.130;5.598;2023-11-22T03:16:47;53.60;;;25.38;;
23716;SDS011;22094;52.130;5.598;2023-11-22T03:19:13;53.42;;;24.65;;
23716;SDS011;22094;52.130;5.598;2023-11-22T03:21:39;60.10;;;26.20;;
23716;SDS011;22094;52.130;5.598;2023-11-22T03:24:06;60.08;;;24.85;;
23716;SDS011;22094;52.130;5.598;2023-11-22T03:26:35;58.08;;;25.25;;
23716;SDS011;22094;52.130;5.598;2023-11-22T03:29:00;56.55;;;24.20;;
23716;SDS011;22094;52.130;5.598;2023-11-22T03:31:29;57.80;;;24.50;;
23716;SDS011;22094;52.130;5.598;2023-11-22T03:33:56;64.82;;;25.58;;
23716;SDS011;22094;52.130;5.598;2023-11-22T03:36:22;57.33;;;24.75;;
23716;SDS011;22094;52.130;5.598;2023-11-22T03:38:48;59.28;;;24.77;;
23716;SDS011;22094;52.130;5.598;2023-11-22T03:41:14;58.90;;;24.83;;
23716;SDS011;22094;52.130;5.598;2023-11-22T03:43:42;55.05;;;24.27;;
23716;SDS011;22094;52.130;5.598;2023-11-22T03:46:07;56.45;;;23.77;;
23716;SDS011;22094;52.130;5.598;2023-11-22T03:48:33;65.30;;;24.70;;
23716;SDS011;22094;52.130;5.598;2023-11-22T03:50:59;56.13;;;23.38;;
23716;SDS011;22094;52.130;5.598;2023-11-22T03:53:25;55.58;;;23.85;;
23716;SDS011;22094;52.130;5.598;2023-11-22T03:55:51;64.85;;;25.35;;
23716;SDS011;22094;52.130;5.598;2023-11-22T03:58:17;60.22;;;24.27;;
23716;SDS011;22094;52.130;5.598;2023-11-22T04:00:43;49.88;;;22.70;;
23716;SDS011;22094;52.130;5.598;2023-11-22T04:03:09;47.03;;;22.20;;
23716;SDS011;22094;52.130;5.598;2023-11-22T04:05:34;61.17;;;24.05;;
23716;SDS011;22094;52.130;5.598;2023-11-22T04:08:00;55.13;;;23.92;;
23716;SDS011;22094;52.130;5.598;2023-11-22T04:10:26;52.90;;;22.92;;
23716;SDS011;22094;52.130;5.598;2023-11-22T04:12:52;54.22;;;23.60;;
23716;SDS011;22094;52.130;5.598;2023-11-22T04:15:17;63.33;;;23.70;;
23716;SDS011;22094;52.130;5.598;2023-11-22T04:17:43;56.70;;;23.65;;
23716;SDS011;22094;52.130;5.598;2023-11-22T04:20:09;54.80;;;23.52;;
23716;SDS011;22094;52.130;5.598;2023-11-22T04:22:36;54.30;;;22.98;;
23716;SDS011;22094;52.130;5.598;2023-11-22T04:25:02;57.28;;;22.10;;
23716;SDS011;22094;52.130;5.598;2023-11-22T04:27:27;63.63;;;22.55;;
23716;SDS011;22094;52.130;5.598;2023-11-22T04:29:53;55.45;;;21.75;;
23716;SDS011;22094;52.130;5.598;2023-11-22T04:32:19;50.08;;;19.77;;
23716;SDS011;22094;52.130;5.598;2023-11-22T04:34:47;54.85;;;19.70;;
23716;SDS011;22094;52.130;5.598;2023-11-22T04:37:12;45.83;;;19.45;;
23716;SDS011;22094;52.130;5.598;2023-11-22T04:39:38;45.13;;;18.95;;
23716;SDS011;22094;52.130;5.598;2023-11-22T04:42:04;48.65;;;18.98;;
23716;SDS011;22094;52.130;5.598;2023-11-22T04:44:30;45.65;;;19.65;;
23716;SDS011;22094;52.130;5.598;2023-11-22T04:46:57;49.42;;;20.80;;
23716;SDS011;22094;52.130;5.598;2023-11-22T04:49:24;52.10;;;20.90;;
23716;SDS011;22094;52.130;5.598;2023-11-22T04:51:50;43.22;;;18.42;;
23716;SDS011;22094;52.130;5.598;2023-11-22T04:54:16;44.63;;;18.45;;
23716;SDS011;22094;52.130;5.598;2023-11-22T04:56:42;50.30;;;19.80;;
23716;SDS011;22094;52.130;5.598;2023-11-22T04:59:08;46.85;;;20.15;;
23716;SDS011;22094;52.130;5.598;2023-11-22T05:05:00;40.13;;;18.55;;
23716;SDS011;22094;52.130;5.598;2023-11-22T05:07:25;52.70;;;19.75;;
23716;SDS011;22094;52.130;5.598;2023-11-22T05:09:51;49.60;;;20.88;;
23716;SDS011;22094;52.130;5.598;2023-11-22T05:12:16;57.10;;;22.02;;
23716;SDS011;22094;52.130;5.598;2023-11-22T05:14:42;46.08;;;21.13;;
23716;SDS011;22094;52.130;5.598;2023-11-22T05:17:08;48.03;;;20.58;;
23716;SDS011;22094;52.130;5.598;2023-11-22T05:19:34;51.90;;;22.17;;
23716;SDS011;22094;52.130;5.598;2023-11-22T05:22:00;50.28;;;23.27;;
23716;SDS011;22094;52.130;5.598;2023-11-22T05:24:25;52.50;;;21.92;;
23716;SDS011;22094;52.130;5.598;2023-11-22T05:26:51;47.17;;;21.75;;
23716;SDS011;22094;52.130;5.598;2023-11-22T05:29:17;45.72;;;21.77;;
23716;SDS011;22094;52.130;5.598;2023-11-22T05:31:42;56.08;;;21.33;;
23716;SDS011;22094;52.130;5.598;2023-11-22T05:34:08;51.30;;;20.63;;
23716;SDS011;22094;52.130;5.598;2023-11-22T05:36:34;62.80;;;22.25;;
23716;SDS011;22094;52.130;5.598;2023-11-22T05:38:59;49.80;;;22.00;;
23716;SDS011;22094;52.130;5.598;2023-11-22T05:41:25;55.17;;;21.90;;
23716;SDS011;22094;52.130;5.598;2023-11-22T05:43:51;70.55;;;24.77;;
23716;SDS011;22094;52.130;5.598;2023-11-22T05:46:18;59.30;;;24.27;;
23716;SDS011;22094;52.130;5.598;2023-11-22T05:48:52;80.55;;;26.17;;
23716;SDS011;22094;52.130;5.598;2023-11-22T05:52:01;73.18;;;24.73;;
23716;SDS011;22094;52.130;5.598;2023-11-22T05:54:30;56.70;;;24.60;;
23716;SDS011;22094;52.130;5.598;2023-11-22T05:56:56;67.70;;;24.15;;
23716;SDS011;22094;52.130;5.598;2023-11-22T05:59:22;53.08;;;23.45;;
23716;SDS011;22094;52.130;5.598;2023-11-22T06:01:49;61.75;;;23.42;;
23716;SDS011;22094;52.130;5.598;2023-11-22T06:04:14;65.00;;;23.95;;
23716;SDS011;22094;52.130;5.598;2023-11-22T06:06:40;83.68;;;24.63;;
23716;SDS011;22094;52.130;5.598;2023-11-22T06:09:05;57.30;;;23.40;;
23716;SDS011;22094;52.130;5.598;2023-11-22T06:11:32;57.72;;;22.75;;
23716;SDS011;22094;52.130;5.598;2023-11-22T06:13:58;60.15;;;23.50;;
23716;SDS011;22094;52.130;5.598;2023-11-22T06:16:24;61.45;;;23.77;;
23716;SDS011;22094;52.130;5.598;2023-11-22T06:18:50;60.20;;;22.40;;
23716;SDS011;22094;52.130;5.598;2023-11-22T06:21:15;76.45;;;22.73;;
23716;SDS011;22094;52.130;5.598;2023-11-22T06:23:42;74.45;;;23.58;;
23716;SDS011;22094;52.130;5.598;2023-11-22T06:26:07;58.70;;;21.48;;
23716;SDS011;22094;52.130;5.598;2023-11-22T06:28:33;62.10;;;22.52;;
23716;SDS011;22094;52.130;5.598;2023-11-22T06:30:59;74.07;;;24.80;;
23716;SDS011;22094;52.130;5.598;2023-11-22T06:33:25;68.03;;;24.20;;
23716;SDS011;22094;52.130;5.598;2023-11-22T06:35:50;60.38;;;24.17;;
23716;SDS011;22094;52.130;5.598;2023-11-22T06:38:16;55.63;;;24.20;;
23716;SDS011;22094;52.130;5.598;2023-11-22T06:40:42;68.43;;;25.50;;
23716;SDS011;22094;52.130;5.598;2023-11-22T06:43:07;67.45;;;23.98;;
23716;SDS011;22094;52.130;5.598;2023-11-22T06:45:33;86.47;;;25.67;;
23716;SDS011;22094;52.130;5.598;2023-11-22T06:47:58;60.33;;;23.48;;
23716;SDS011;22094;52.130;5.598;2023-11-22T06:50:24;63.90;;;24.85;;
23716;SDS011;22094;52.130;5.598;2023-11-22T06:52:50;60.85;;;26.08;;
23716;SDS011;22094;52.130;5.598;2023-11-22T06:55:17;59.10;;;25.98;;
23716;SDS011;22094;52.130;5.598;2023-11-22T06:57:43;63.33;;;24.00;;
23716;SDS011;22094;52.130;5.598;2023-11-22T07:00:09;78.57;;;24.92;;
23716;SDS011;22094;52.130;5.598;2023-11-22T07:02:35;57.40;;;24.58;;
23716;SDS011;22094;52.130;5.598;2023-11-22T07:05:02;90.43;;;29.60;;
23716;SDS011;22094;52.130;5.598;2023-11-22T07:07:28;62.53;;;27.27;;
23716;SDS011;22094;52.130;5.598;2023-11-22T07:09:54;70.70;;;26.40;;
23716;SDS011;22094;52.130;5.598;2023-11-22T07:12:23;56.75;;;26.35;;
23716;SDS011;22094;52.130;5.598;2023-11-22T07:14:49;79.47;;;26.00;;
23716;SDS011;22094;52.130;5.598;2023-11-22T07:17:15;68.50;;;25.05;;
23716;SDS011;22094;52.130;5.598;2023-11-22T07:19:42;78.05;;;26.23;;
23716;SDS011;22094;52.130;5.598;2023-11-22T07:22:12;64.75;;;27.30;;
23716;SDS011;22094;52.130;5.598;2023-11-22T07:24:41;68.60;;;27.45;;
23716;SDS011;22094;52.130;5.598;2023-11-22T07:27:09;79.35;;;29.42;;
23716;SDS011;22094;52.130;5.598;2023-11-22T07:29:41;69.57;;;28.90;;
23716;SDS011;22094;52.130;5.598;2023-11-22T07:32:07;86.95;;;28.77;;
23716;SDS011;22094;52.130;5.598;2023-11-22T07:34:34;92.43;;;30.20;;
23716;SDS011;22094;52.130;5.598;2023-11-22T07:37:00;95.03;;;29.75;;
23716;SDS011;22094;52.130;5.598;2023-11-22T07:39:26;83.25;;;26.67;;
23716;SDS011;22094;52.130;5.598;2023-11-22T07:41:55;67.50;;;26.20;;
23716;SDS011;22094;52.130;5.598;2023-11-22T07:44:21;72.40;;;25.98;;
23716;SDS011;22094;52.130;5.598;2023-11-22T07:46:47;88.07;;;27.83;;
23716;SDS011;22094;52.130;5.598;2023-11-22T07:49:13;98.70;;;29.38;;
23716;SDS011;22094;52.130;5.598;2023-11-22T07:51:39;90.75;;;26.52;;
23716;SDS011;22094;52.130;5.598;2023-11-22T07:54:06;75.40;;;26.00;;
23716;SDS011;22094;52.130;5.598;2023-11-22T07:56:32;88.50;;;26.42;;
23716;SDS011;22094;52.130;5.598;2023-11-22T07:58:58;102.68;;;27.70;;
23716;SDS011;22094;52.130;5.598;2023-11-22T08:01:24;86.97;;;26.58;;
23716;SDS011;22094;52.130;5.598;2023-11-22T08:03:50;90.15;;;26.90;;
23716;SDS011;22094;52.130;5.598;2023-11-22T08:06:16;76.05;;;26.70;;
23716;SDS011;22094;52.130;5.598;2023-11-22T08:08:43;97.65;;;30.30;;
23716;SDS011;22094;52.130;5.598;2023-11-22T08:11:10;107.68;;;32.47;;
23716;SDS011;22094;52.130;5.598;2023-11-22T08:13:42;107.82;;;32.00;;
23716;SDS011;22094;52.130;5.598;2023-11-22T08:16:09;125.80;;;31.88;;
23716;SDS011;22094;52.130;5.598;2023-11-22T08:18:38;84.47;;;27.55;;
23716;SDS011;22094;52.130;5.598;2023-11-22T08:21:04;93.90;;;30.20;;
23716;SDS011;22094;52.130;5.598;2023-11-22T08:23:30;97.85;;;32.45;;
23716;SDS011;22094;52.130;5.598;2023-11-22T08:25:58;72.25;;;29.48;;
23716;SDS011;22094;52.130;5.598;2023-11-22T08:28:24;122.35;;;35.08;;
23716;SDS011;22094;52.130;5.598;2023-11-22T08:30:51;87.93;;;29.98;;
23716;SDS011;22094;52.130;5.598;2023-11-22T08:33:16;105.00;;;31.02;;
23716;SDS011;22094;52.130;5.598;2023-11-22T08:35:42;105.18;;;31.08;;
23716;SDS011;22094;52.130;5.598;2023-11-22T08:38:08;89.32;;;29.60;;
23716;SDS011;22094;52.130;5.598;2023-11-22T08:40:34;124.70;;;36.25;;
23716;SDS011;22094;52.130;5.598;2023-11-22T08:43:05;115.15;;;35.95;;
23716;SDS011;22094;52.130;5.598;2023-11-22T08:45:31;138.50;;;45.88;;
23716;SDS011;22094;52.130;5.598;2023-11-22T08:47:56;116.15;;;41.85;;
23716;SDS011;22094;52.130;5.598;2023-11-22T08:50:24;97.47;;;38.65;;
23716;SDS011;22094;52.130;5.598;2023-11-22T08:52:50;92.95;;;34.53;;
23716;SDS011;22094;52.130;5.598;2023-11-22T08:55:21;93.32;;;37.58;;
23716;SDS011;22094;52.130;5.598;2023-11-22T08:57:50;86.90;;;33.55;;
23716;SDS011;22094;52.130;5.598;2023-11-22T09:00:19;82.78;;;31.00;;
23716;SDS011;22094;52.130;5.598;2023-11-22T09:02:50;91.22;;;33.28;;
23716;SDS011;22094;52.130;5.598;2023-11-22T09:05:16;87.97;;;36.00;;
23716;SDS011;22094;52.130;5.598;2023-11-22T09:07:44;83.93;;;34.45;;
23716;SDS011;22094;52.130;5.598;2023-11-22T09:10:10;83.20;;;33.67;;
23716;SDS011;22094;52.130;5.598;2023-11-22T09:12:36;93.05;;;34.67;;
23716;SDS011;22094;52.130;5.598;2023-11-22T09:15:04;96.80;;;38.47;;
23716;SDS011;22094;52.130;5.598;2023-11-22T09:17:33;75.65;;;36.42;;
23716;SDS011;22094;52.130;5.598;2023-11-22T09:19:59;86.45;;;36.45;;
23716;SDS011;22094;52.130;5.598;2023-11-22T09:22:27;91.93;;;33.72;;
23716;SDS011;22094;52.130;5.598;2023-11-22T09:24:52;93.60;;;33.50;;
23716;SDS011;22094;52.130;5.598;2023-11-22T09:27:18;80.10;;;31.27;;
23716;SDS011;22094;52.130;5.598;2023-11-22T09:29:45;90.60;;;33.05;;
23716;SDS011;22094;52.130;5.598;2023-11-22T09:32:11;85.47;;;32.85;;
23716;SDS011;22094;52.130;5.598;2023-11-22T09:34:38;106.05;;;34.88;;
23716;SDS011;22094;52.130;5.598;2023-11-22T09:37:03;105.70;;;36.28;;
23716;SDS011;22094;52.130;5.598;2023-11-22T09:39:32;119.45;;;36.50;;
23716;SDS011;22094;52.130;5.598;2023-11-22T09:42:01;114.55;;;35.95;;
23716;SDS011;22094;52.130;5.598;2023-11-22T09:44:27;102.72;;;35.78;;
23716;SDS011;22094;52.130;5.598;2023-11-22T09:46:53;82.70;;;34.58;;
23716;SDS011;22094;52.130;5.598;2023-11-22T09:49:23;83.00;;;35.72;;
23716;SDS011;22094;52.130;5.598;2023-11-22T09:51:51;101.80;;;36.50;;
23716;SDS011;22094;52.130;5.598;2023-11-22T09:54:20;80.75;;;34.33;;
23716;SDS011;22094;52.130;5.598;2023-11-22T09:56:48;89.45;;;34.72;;
23716;SDS011;22094;52.130;5.598;2023-11-22T09:59:16;85.78;;;34.65;;
23716;SDS011;22094;52.130;5.598;2023-11-22T10:01:48;88.80;;;34.35;;
23716;SDS011;22094;52.130;5.598;2023-11-22T10:04:14;95.40;;;35.13;;
23716;SDS011;22094;52.130;5.598;2023-11-22T10:06:40;79.55;;;33.25;;
23716;SDS011;22094;52.130;5.598;2023-11-22T10:09:11;80.95;;;34.15;;
23716;SDS011;22094;52.130;5.598;2023-11-22T10:11:39;94.10;;;34.08;;
23716;SDS011;22094;52.130;5.598;2023-11-22T10:14:08;89.15;;;35.08;;
23716;SDS011;22094;52.130;5.598;2023-11-22T10:16:34;93.38;;;34.85;;
23716;SDS011;22094;52.130;5.598;2023-11-22T10:19:00;81.18;;;34.67;;
23716;SDS011;22094;52.130;5.598;2023-11-22T10:21:26;92.43;;;36.92;;
23716;SDS011;22094;52.130;5.598;2023-11-22T10:24:02;72.15;;;32.53;;
23716;SDS011;22094;52.130;5.598;2023-11-22T10:26:28;75.35;;;33.97;;
23716;SDS011;22094;52.130;5.598;2023-11-22T10:28:55;67.30;;;30.23;;
23716;SDS011;22094;52.130;5.598;2023-11-22T10:31:22;76.55;;;32.65;;
23716;SDS011;22094;52.130;5.598;2023-11-22T10:33:48;71.22;;;31.38;;
23716;SDS011;22094;52.130;5.598;2023-11-22T10:36:14;67.65;;;30.83;;
23716;SDS011;22094;52.130;5.598;2023-11-22T10:38:41;77.53;;;33.30;;
23716;SDS011;22094;52.130;5.598;2023-11-22T10:41:11;65.22;;;33.10;;
23716;SDS011;22094;52.130;5.598;2023-11-22T10:43:38;64.75;;;32.85;;
23716;SDS011;22094;52.130;5.598;2023-11-22T10:46:04;69.68;;;32.67;;
23716;SDS011;22094;52.130;5.598;2023-11-22T10:48:31;65.90;;;31.67;;
23716;SDS011;22094;52.130;5.598;2023-11-22T10:51:01;72.75;;;32.35;;
23716;SDS011;22094;52.130;5.598;2023-11-22T10:53:34;61.80;;;30.50;;
23716;SDS011;22094;52.130;5.598;2023-11-22T10:56:17;61.00;;;29.98;;
23716;SDS011;22094;52.130;5.598;2023-11-22T11:01:10;53.83;;;27.33;;
23716;SDS011;22094;52.130;5.598;2023-11-22T11:03:37;60.70;;;28.65;;
23716;SDS011;22094;52.130;5.598;2023-11-22T11:06:07;50.58;;;27.60;;
23716;SDS011;22094;52.130;5.598;2023-11-22T11:08:36;55.13;;;29.02;;
23716;SDS011;22094;52.130;5.598;2023-11-22T11:11:04;50.85;;;27.77;;
23716;SDS011;22094;52.130;5.598;2023-11-22T11:13:31;52.80;;;29.10;;
23716;SDS011;22094;52.130;5.598;2023-11-22T11:16:01;54.20;;;28.88;;
23716;SDS011;22094;52.130;5.598;2023-11-22T11:25:13;50.05;;;27.67;;
23716;SDS011;22094;52.130;5.598;2023-11-22T11:27:40;48.00;;;26.40;;
23716;SDS011;22094;52.130;5.598;2023-11-22T11:30:39;42.70;;;24.80;;
23716;SDS011;22094;52.130;5.598;2023-11-22T11:33:09;39.47;;;23.52;;
23716;SDS011;22094;52.130;5.598;2023-11-22T11:35:42;36.30;;;21.60;;
23716;SDS011;22094;52.130;5.598;2023-11-22T11:38:12;32.53;;;21.35;;
23716;SDS011;22094;52.130;5.598;2023-11-22T11:40:40;31.15;;;20.58;;
23716;SDS011;22094;52.130;5.598;2023-11-22T11:43:06;28.52;;;19.20;;
23716;SDS011;22094;52.130;5.598;2023-11-22T11:45:36;25.80;;;18.17;;
23716;SDS011;22094;52.130;5.598;2023-11-22T11:48:04;30.65;;;18.70;;
23716;SDS011;22094;52.130;5.598;2023-11-22T11:50:31;29.80;;;18.58;;
23716;SDS011;22094;52.130;5.598;2023-11-22T11:52:57;27.30;;;18.05;;
23716;SDS011;22094;52.130;5.598;2023-11-22T11:55:23;32.15;;;20.27;;
23716;SDS011;22094;52.130;5.598;2023-11-22T11:57:52;26.40;;;18.70;;
23716;SDS011;22094;52.130;5.598;2023-11-22T12:00:19;27.25;;;17.88;;
23716;SDS011;22094;52.130;5.598;2023-11-22T12:02:45;24.02;;;17.15;;
23716;SDS011;22094;52.130;5.598;2023-11-22T12:05:11;26.75;;;18.23;;
23716;SDS011;22094;52.130;5.598;2023-11-22T12:07:38;23.85;;;16.67;;
23716;SDS011;22094;52.130;5.598;2023-11-22T12:10:04;24.92;;;16.02;;
23716;SDS011;22094;52.130;5.598;2023-11-22T12:12:34;24.50;;;15.98;;
23716;SDS011;22094;52.130;5.598;2023-11-22T12:15:00;26.60;;;16.05;;
23716;SDS011;22094;52.130;5.598;2023-11-22T12:17:25;23.15;;;15.88;;
23716;SDS011;22094;52.130;5.598;2023-11-22T12:19:52;25.38;;;16.40;;
23716;SDS011;22094;52.130;5.598;2023-11-22T12:22:18;26.70;;;16.88;;
23716;SDS011;22094;52.130;5.598;2023-11-22T12:24:45;25.10;;;16.75;;
23716;SDS011;22094;52.130;5.598;2023-11-22T12:27:11;23.95;;;16.52;;
23716;SDS011;22094;52.130;5.598;2023-11-22T12:29:37;25.45;;;17.45;;
23716;SDS011;22094;52.130;5.598;2023-11-22T12:32:03;25.52;;;17.42;;
23716;SDS011;22094;52.130;5.598;2023-11-22T12:34:29;25.13;;;17.27;;
23716;SDS011;22094;52.130;5.598;2023-11-22T12:36:55;25.15;;;16.98;;
23716;SDS011;22094;52.130;5.598;2023-11-22T12:39:21;23.58;;;16.75;;
23716;SDS011;22094;52.130;5.598;2023-11-22T12:41:48;24.30;;;16.80;;
23716;SDS011;22094;52.130;5.598;2023-11-22T12:44:18;22.25;;;14.75;;
23716;SDS011;22094;52.130;5.598;2023-11-22T12:46:51;20.75;;;14.95;;
23716;SDS011;22094;52.130;5.598;2023-11-22T12:49:24;20.48;;;15.15;;
23716;SDS011;22094;52.130;5.598;2023-11-22T12:51:55;21.98;;;15.65;;
23716;SDS011;22094;52.130;5.598;2023-11-22T12:54:22;23.20;;;14.60;;
23716;SDS011;22094;52.130;5.598;2023-11-22T12:56:51;23.38;;;14.98;;
23716;SDS011;22094;52.130;5.598;2023-11-22T12:59:23;20.67;;;15.05;;
23716;SDS011;22094;52.130;5.598;2023-11-22T13:01:49;25.75;;;16.77;;
23716;SDS011;22094;52.130;5.598;2023-11-22T13:04:17;26.85;;;16.15;;
23716;SDS011;22094;52.130;5.598;2023-11-22T13:06:43;24.20;;;17.45;;
23716;SDS011;22094;52.130;5.598;2023-11-22T13:09:09;27.42;;;17.27;;
23716;SDS011;22094;52.130;5.598;2023-11-22T13:11:40;27.27;;;17.35;;
23716;SDS011;22094;52.130;5.598;2023-11-22T13:14:07;28.98;;;18.95;;
23716;SDS011;22094;52.130;5.598;2023-11-22T13:16:33;30.65;;;19.48;;
23716;SDS011;22094;52.130;5.598;2023-11-22T13:18:59;35.60;;;21.27;;
23716;SDS011;22094;52.130;5.598;2023-11-22T13:21:25;34.75;;;20.38;;
23716;SDS011;22094;52.130;5.598;2023-11-22T13:23:51;35.03;;;21.35;;
23716;SDS011;22094;52.130;5.598;2023-11-22T13:26:17;37.30;;;22.20;;
23716;SDS011;22094;52.130;5.598;2023-11-22T13:28:43;37.67;;;22.33;;
23716;SDS011;22094;52.130;5.598;2023-11-22T13:31:10;40.10;;;22.63;;
23716;SDS011;22094;52.130;5.598;2023-11-22T13:33:37;43.60;;;23.90;;
23716;SDS011;22094;52.130;5.598;2023-11-22T13:36:03;44.65;;;24.73;;
23716;SDS011;22094;52.130;5.598;2023-11-22T13:38:30;45.58;;;25.13;;
23716;SDS011;22094;52.130;5.598;2023-11-22T13:40:55;43.17;;;24.17;;
23716;SDS011;22094;52.130;5.598;2023-11-22T13:43:22;44.42;;;24.42;;
23716;SDS011;22094;52.130;5.598;2023-11-22T13:45:48;44.97;;;23.65;;
23716;SDS011;22094;52.130;5.598;2023-11-22T13:48:15;43.28;;;23.95;;
23716;SDS011;22094;52.130;5.598;2023-11-22T13:50:42;42.90;;;24.95;;
23716;SDS011;22094;52.130;5.598;2023-11-22T13:53:07;42.08;;;23.52;;
23716;SDS011;22094;52.130;5.598;2023-11-22T13:55:35;40.08;;;24.98;;
23716;SDS011;22094;52.130;5.598;2023-11-22T13:58:02;44.08;;;24.92;;
23716;SDS011;22094;52.130;5.598;2023-11-22T14:00:30;40.50;;;24.08;;
23716;SDS011;22094;52.130;5.598;2023-11-22T14:03:00;43.15;;;25.55;;
23716;SDS011;22094;52.130;5.598;2023-11-22T14:05:30;40.45;;;23.67;;
23716;SDS011;22094;52.130;5.598;2023-11-22T14:07:57;40.83;;;24.73;;
23716;SDS011;22094;52.130;5.598;2023-11-22T14:10:23;40.92;;;24.60;;
23716;SDS011;22094;52.130;5.598;2023-11-22T14:12:49;39.72;;;24.42;;
23716;SDS011;22094;52.130;5.598;2023-11-22T14:15:18;39.33;;;25.05;;
23716;SDS011;22094;52.130;5.598;2023-11-22T14:17:46;40.67;;;23.73;;
23716;SDS011;22094;52.130;5.598;2023-11-22T14:20:16;40.85;;;24.33;;
23716;SDS011;22094;52.130;5.598;2023-11-22T14:22:42;38.65;;;24.58;;
23716;SDS011;22094;52.130;5.598;2023-11-22T14:25:08;37.63;;;24.05;;
23716;SDS011;22094;52.130;5.598;2023-11-22T14:27:39;40.13;;;23.90;;
23716;SDS011;22094;52.130;5.598;2023-11-22T14:30:05;40.05;;;24.20;;
23716;SDS011;22094;52.130;5.598;2023-11-22T14:32:33;37.90;;;23.23;;